createdAt,value
2018-11-11T00:00:57.869Z,3.45
2018-11-11T00:03:25.155Z,2.83
2018-11-11T00:05:52.388Z,2.72
2018-11-11T00:08:19.693Z,2.50
2018-11-11T00:10:47.033Z,2.50
2018-11-11T00:13:14.340Z,2.50
2018-11-11T00:15:41.608Z,2.15
2018-11-11T00:18:08.875Z,3.02
2018-11-11T00:20:36.067Z,2.10
2018-11-11T00:23:03.331Z,2.25
2018-11-11T00:25:30.547Z,1.87
2018-11-11T00:27:57.829Z,1.75
2018-11-11T00:30:25.014Z,2.27
2018-11-11T00:32:52.274Z,2.60
2018-11-11T00:35:19.488Z,3.22
2018-11-11T00:37:46.712Z,2.95
2018-11-11T00:40:14.828Z,2.85
2018-11-11T00:42:42.267Z,2.90
2018-11-11T00:45:10.136Z,5.00
2018-11-11T00:47:37.533Z,4.37
2018-11-11T00:50:06.039Z,4.90
2018-11-11T00:52:33.329Z,5.15
2018-11-11T00:55:00.571Z,5.87
2018-11-11T00:57:27.844Z,5.62
2018-11-11T00:59:55.161Z,6.28
2018-11-11T01:02:22.490Z,6.78
2018-11-11T01:04:49.695Z,6.80
2018-11-11T01:07:17.183Z,5.55
2018-11-11T01:09:44.450Z,5.12
2018-11-11T01:12:11.806Z,6.22
2018-11-11T01:14:39.030Z,5.70
2018-11-11T01:17:06.701Z,5.28
2018-11-11T01:19:33.972Z,6.00
2018-11-11T01:22:01.236Z,5.78
2018-11-11T01:24:28.501Z,5.40
2018-11-11T01:26:55.830Z,6.12
2018-11-11T01:29:23.026Z,5.40
2018-11-11T01:31:50.332Z,4.47
2018-11-11T01:34:17.592Z,4.37
2018-11-11T01:36:44.857Z,4.62
2018-11-11T01:39:12.170Z,4.37
2018-11-11T01:41:39.421Z,4.83
2018-11-11T01:44:07.624Z,5.45
2018-11-11T01:46:34.922Z,6.00
2018-11-11T01:49:02.197Z,6.25
2018-11-11T01:51:29.460Z,6.58
2018-11-11T01:53:56.690Z,8.10
2018-11-11T01:56:25.116Z,7.67
2018-11-11T01:58:52.379Z,8.95
2018-11-11T02:01:19.619Z,9.00
2018-11-11T02:03:46.834Z,9.98
2018-11-11T02:06:14.029Z,10.30
2018-11-11T02:08:41.287Z,10.53
2018-11-11T02:11:08.581Z,9.78
2018-11-11T02:13:35.815Z,12.90
2018-11-11T02:16:03.183Z,11.63
2018-11-11T02:18:30.556Z,10.25
2018-11-11T02:20:57.905Z,11.95
2018-11-11T02:23:25.129Z,12.73
2018-11-11T02:25:52.337Z,12.10
2018-11-11T02:28:19.554Z,11.22
2018-11-11T02:30:46.857Z,10.00
2018-11-11T02:33:14.074Z,10.48
2018-11-11T02:35:41.302Z,10.20
2018-11-11T02:38:08.576Z,9.30
2018-11-11T02:40:35.781Z,7.90
2018-11-11T02:43:03.062Z,8.75
2018-11-11T02:45:30.324Z,8.98
2018-11-11T02:47:57.615Z,9.10
2018-11-11T02:50:24.890Z,9.10
2018-11-11T02:52:52.110Z,9.68
2018-11-11T02:55:19.349Z,8.10
2018-11-11T02:57:47.064Z,7.97
2018-11-11T03:00:16.698Z,9.50
2018-11-11T03:02:44.728Z,7.40
2018-11-11T03:05:13.141Z,7.92
2018-11-11T03:07:40.438Z,7.70
2018-11-11T03:10:08.646Z,7.03
2018-11-11T03:12:36.024Z,8.25
2018-11-11T03:15:03.446Z,8.15
2018-11-11T03:17:30.693Z,8.98
2018-11-11T03:19:57.955Z,8.40
2018-11-11T03:22:25.122Z,8.25
2018-11-11T03:24:52.393Z,10.48
2018-11-11T03:27:19.712Z,9.88
2018-11-11T03:29:46.984Z,8.40
2018-11-11T03:32:14.277Z,8.08
2018-11-11T03:34:41.556Z,7.70
2018-11-11T03:37:08.829Z,7.80
2018-11-11T03:39:36.049Z,10.05
2018-11-11T03:42:03.385Z,9.03
2018-11-11T03:44:30.640Z,8.88
2018-11-11T03:46:57.959Z,8.88
2018-11-11T03:49:25.511Z,8.73
2018-11-11T03:51:52.735Z,8.45
2018-11-11T03:54:19.999Z,8.28
2018-11-11T03:56:47.217Z,9.85
2018-11-11T03:59:14.457Z,8.95
2018-11-11T04:01:41.729Z,7.83
2018-11-11T04:04:09.041Z,6.87
2018-11-11T04:06:36.295Z,8.45
2018-11-11T04:09:07.234Z,8.05
2018-11-11T04:11:34.488Z,7.55
2018-11-11T04:14:01.763Z,7.83
2018-11-11T04:16:28.952Z,7.08
2018-11-11T04:18:56.200Z,7.40
2018-11-11T04:21:23.447Z,8.15
2018-11-11T04:23:51.488Z,6.53
2018-11-11T04:26:18.696Z,6.67
2018-11-11T04:28:46.016Z,6.60
2018-11-11T04:31:13.299Z,6.60
2018-11-11T04:33:40.764Z,5.67
2018-11-11T04:36:08.036Z,5.67
2018-11-11T04:38:35.248Z,5.30
2018-11-11T04:41:02.502Z,6.15
2018-11-11T04:43:29.763Z,6.60
2018-11-11T04:45:56.970Z,5.55
2018-11-11T04:48:24.262Z,6.50
2018-11-11T04:50:51.526Z,6.65
2018-11-11T04:53:18.883Z,6.53
2018-11-11T04:55:46.108Z,6.80
2018-11-11T04:58:13.479Z,6.72
2018-11-11T05:00:40.711Z,5.90
2018-11-11T05:03:07.980Z,6.17
2018-11-11T05:05:35.272Z,6.10
2018-11-11T05:08:02.461Z,6.17
2018-11-11T05:10:29.751Z,5.50
2018-11-11T05:12:57.047Z,5.33
2018-11-11T05:15:24.298Z,5.72
2018-11-11T05:17:51.555Z,5.85
2018-11-11T05:20:18.761Z,4.40
2018-11-11T05:22:45.996Z,5.33
2018-11-11T05:25:13.956Z,4.97
2018-11-11T05:27:41.554Z,4.78
2018-11-11T05:30:09.441Z,5.12
2018-11-11T05:32:36.693Z,5.55
2018-11-11T05:35:04.157Z,5.00
2018-11-11T05:37:31.393Z,5.45
2018-11-11T05:39:58.634Z,5.50
2018-11-11T05:42:29.032Z,5.75
2018-11-11T05:44:56.290Z,4.67
2018-11-11T05:47:23.578Z,4.97
2018-11-11T05:49:50.847Z,6.20
2018-11-11T05:52:18.080Z,4.60
2018-11-11T05:54:45.456Z,5.37
2018-11-11T05:57:12.675Z,5.10
2018-11-11T05:59:39.899Z,5.37
2018-11-11T06:02:07.135Z,4.75
2018-11-11T06:04:34.431Z,4.87
2018-11-11T06:07:01.656Z,5.55
2018-11-11T06:09:28.880Z,5.00
2018-11-11T06:11:56.127Z,5.15
2018-11-11T06:14:23.351Z,4.25
2018-11-11T06:16:50.619Z,4.40
2018-11-11T06:19:17.897Z,4.53
2018-11-11T06:21:45.157Z,5.65
2018-11-11T06:24:12.424Z,5.47
2018-11-11T06:26:39.707Z,5.45
2018-11-11T06:29:07.272Z,6.47
2018-11-11T06:31:34.522Z,7.62
2018-11-11T06:34:01.797Z,8.40
2018-11-11T06:36:29.003Z,7.20
2018-11-11T06:38:56.280Z,6.20
2018-11-11T06:41:23.511Z,5.47
2018-11-11T06:43:50.768Z,6.70
2018-11-11T06:46:18.075Z,6.70
2018-11-11T06:48:45.400Z,6.80
2018-11-11T06:51:12.601Z,6.10
2018-11-11T06:53:39.898Z,6.65
2018-11-11T06:56:10.719Z,6.72
2018-11-11T06:58:37.978Z,5.87
2018-11-11T07:01:05.324Z,5.35
2018-11-11T07:04:01.548Z,5.42
2018-11-11T07:06:29.234Z,7.25
2018-11-11T07:08:56.503Z,7.78
2018-11-11T07:11:23.743Z,7.33
2018-11-11T07:13:51.043Z,7.62
2018-11-11T07:16:18.330Z,5.83
2018-11-11T07:18:46.173Z,5.80
2018-11-11T07:21:15.092Z,5.47
2018-11-11T07:23:42.448Z,6.28
2018-11-11T07:26:09.784Z,7.37
2018-11-11T07:28:37.030Z,5.50
2018-11-11T07:31:04.976Z,5.47
2018-11-11T07:33:32.241Z,5.70
2018-11-11T07:35:59.567Z,5.30
2018-11-11T07:38:26.804Z,4.05
2018-11-11T07:40:54.065Z,4.87
2018-11-11T07:43:21.505Z,5.00
2018-11-11T07:45:49.357Z,4.55
2018-11-11T07:48:16.607Z,4.62
2018-11-11T07:50:43.841Z,4.40
2018-11-11T07:53:11.066Z,4.78
2018-11-11T07:55:38.362Z,5.03
2018-11-11T07:58:05.734Z,4.87
2018-11-11T08:00:32.937Z,4.10
2018-11-11T08:03:00.172Z,3.97
2018-11-11T08:05:27.423Z,4.57
2018-11-11T08:07:54.686Z,4.57
2018-11-11T08:10:33.402Z,3.97
2018-11-11T08:13:00.700Z,3.70
2018-11-11T08:15:27.952Z,4.40
2018-11-11T08:17:55.268Z,3.63
2018-11-11T08:20:22.559Z,3.90
2018-11-11T08:22:50.388Z,4.37
2018-11-11T08:25:17.717Z,4.87
2018-11-11T08:27:44.949Z,4.57
2018-11-11T08:30:12.186Z,4.17
2018-11-11T08:35:16.087Z,3.53
2018-11-11T08:37:43.391Z,3.80
2018-11-11T08:40:10.661Z,4.17
2018-11-11T08:42:37.964Z,3.93
2018-11-11T08:45:07.331Z,4.13
2018-11-11T08:47:34.608Z,3.70
2018-11-11T08:50:01.849Z,4.73
2018-11-11T08:52:29.120Z,4.70
2018-11-11T08:54:56.448Z,4.40
2018-11-11T08:57:23.724Z,4.30
2018-11-11T08:59:50.985Z,4.20
2018-11-11T09:02:18.282Z,4.53
2018-11-11T09:04:45.590Z,4.10
2018-11-11T09:07:12.731Z,4.27
2018-11-11T09:09:39.995Z,5.63
2018-11-11T09:12:07.282Z,4.30
2018-11-11T09:14:34.536Z,4.10
2018-11-11T09:17:01.788Z,4.47
2018-11-11T09:19:28.980Z,3.80
2018-11-11T09:21:56.240Z,4.57
2018-11-11T09:24:23.464Z,4.97
2018-11-11T09:26:50.738Z,4.80
2018-11-11T09:29:18.022Z,3.33
2018-11-11T09:31:45.299Z,3.87
2018-11-11T09:34:12.499Z,4.13
2018-11-11T09:36:39.711Z,4.57
2018-11-11T09:39:08.353Z,3.30
2018-11-11T09:41:35.550Z,3.27
2018-11-11T09:44:02.802Z,2.67
2018-11-11T09:46:30.063Z,2.20
2018-11-11T09:48:57.357Z,1.70
2018-11-11T09:51:24.646Z,2.53
2018-11-11T09:53:51.880Z,2.47
2018-11-11T09:56:19.129Z,1.70
2018-11-11T09:58:46.540Z,1.73
2018-11-11T10:01:13.705Z,1.50
2018-11-11T10:03:44.399Z,1.10
2018-11-11T10:06:22.526Z,1.30
2018-11-11T10:09:01.830Z,1.40
2018-11-11T10:11:36.088Z,1.33
2018-11-11T10:14:15.227Z,2.00
2018-11-11T10:17:46.466Z,1.50
2018-11-11T10:20:18.182Z,1.60
2018-11-11T10:22:49.637Z,1.30
2018-11-11T10:25:22.711Z,1.93
2018-11-11T10:27:55.443Z,1.30
2018-11-11T10:30:27.816Z,1.33
2018-11-11T10:33:17.130Z,1.30
2018-11-11T10:35:48.016Z,1.30
2018-11-11T10:38:20.966Z,1.07
2018-11-11T10:40:51.327Z,0.90
2018-11-11T10:43:38.669Z,0.90
2018-11-11T10:46:24.714Z,0.70
2018-11-11T10:48:57.711Z,0.80
2018-11-11T10:51:24.976Z,0.60
2018-11-11T10:53:52.173Z,0.73
2018-11-11T10:56:19.435Z,0.70
2018-11-11T10:58:46.734Z,0.70
2018-11-11T11:01:22.669Z,0.70
2018-11-11T11:03:50.480Z,0.70
2018-11-11T11:06:22.326Z,1.03
2018-11-11T11:08:55.366Z,0.70
2018-11-11T11:11:22.759Z,0.70
2018-11-11T11:13:50.113Z,0.60
2018-11-11T11:16:17.611Z,0.70
2018-11-11T11:18:44.943Z,0.70
2018-11-11T11:21:12.448Z,0.63
2018-11-11T11:23:39.853Z,0.70
2018-11-11T11:26:07.090Z,0.70
2018-11-11T11:28:34.431Z,0.70
2018-11-11T11:31:01.654Z,0.70
2018-11-11T11:33:28.891Z,0.87
2018-11-11T11:35:56.172Z,0.60
2018-11-11T11:38:23.473Z,0.90
2018-11-11T11:40:50.673Z,0.60
2018-11-11T11:43:17.879Z,3.60
2018-11-11T11:45:45.152Z,1.10
2018-11-11T11:48:12.394Z,1.00
2018-11-11T11:50:39.626Z,0.70
2018-11-11T11:53:06.875Z,0.90
2018-11-11T11:55:34.145Z,0.60
2018-11-11T11:58:14.903Z,0.53
2018-11-11T12:00:42.359Z,0.80
2018-11-11T12:03:09.595Z,0.80
2018-11-11T12:05:36.805Z,1.17
2018-11-11T12:08:04.078Z,0.73
2018-11-11T12:10:31.372Z,0.83
2018-11-11T12:12:58.597Z,0.90
2018-11-11T12:15:25.856Z,0.70
2018-11-11T12:17:53.104Z,0.80
2018-11-11T12:20:20.308Z,0.80
2018-11-11T12:22:47.661Z,0.67
2018-11-11T12:25:14.842Z,0.80
2018-11-11T12:27:42.115Z,0.83
2018-11-11T12:30:09.928Z,0.90
2018-11-11T12:32:37.360Z,0.80
2018-11-11T12:35:05.054Z,0.90
2018-11-11T12:37:32.265Z,0.70
2018-11-11T12:39:59.933Z,0.80
2018-11-11T12:42:27.090Z,1.10
2018-11-11T12:44:54.446Z,0.70
2018-11-11T12:47:21.579Z,0.93
2018-11-11T12:49:48.830Z,0.80
2018-11-11T12:52:16.107Z,0.70
2018-11-11T12:54:43.401Z,0.80
2018-11-11T12:57:10.651Z,1.00
2018-11-11T12:59:37.979Z,0.80
2018-11-11T13:02:05.281Z,0.70
2018-11-11T13:04:32.570Z,0.80
2018-11-11T13:06:59.782Z,0.80
2018-11-11T13:09:27.020Z,0.70
2018-11-11T13:11:54.255Z,0.70
2018-11-11T13:14:21.522Z,1.00
2018-11-11T13:16:48.701Z,0.70
2018-11-11T13:19:15.874Z,0.70
2018-11-11T13:21:43.183Z,0.90
2018-11-11T13:24:10.340Z,0.60
2018-11-11T13:26:37.542Z,0.70
2018-11-11T13:29:04.805Z,0.60
2018-11-11T13:31:32.044Z,0.60
2018-11-11T13:33:59.312Z,0.60
2018-11-11T13:36:26.565Z,0.60
2018-11-11T13:38:53.823Z,0.60
2018-11-11T13:41:21.108Z,0.70
2018-11-11T13:43:48.337Z,0.70
2018-11-11T13:46:15.620Z,0.60
2018-11-11T13:48:42.833Z,0.53
2018-11-11T13:51:10.061Z,0.60
2018-11-11T13:53:37.291Z,0.70
2018-11-11T13:56:04.578Z,2.50
2018-11-11T13:58:31.925Z,1.00
2018-11-11T14:00:59.166Z,0.60
2018-11-11T14:03:26.377Z,0.70
2018-11-11T14:05:53.698Z,0.60
2018-11-11T14:08:21.177Z,0.70
2018-11-11T14:10:48.550Z,0.60
2018-11-11T14:13:15.842Z,0.63
2018-11-11T14:15:43.191Z,0.70
2018-11-11T14:18:10.657Z,0.70
2018-11-11T14:20:37.922Z,0.70
2018-11-11T14:23:05.374Z,0.67
2018-11-11T14:25:32.637Z,0.70
2018-11-11T14:27:59.837Z,0.97
2018-11-11T14:30:27.847Z,1.00
2018-11-11T14:32:56.148Z,0.97
2018-11-11T14:35:23.468Z,1.30
2018-11-11T14:37:50.938Z,0.70
2018-11-11T14:40:22.666Z,0.80
2018-11-11T14:42:49.934Z,0.50
2018-11-11T14:45:18.020Z,0.70
2018-11-11T14:47:46.570Z,1.10
2018-11-11T14:50:14.782Z,0.80
2018-11-11T14:52:42.644Z,0.67
2018-11-11T14:55:13.665Z,0.60
2018-11-11T14:57:41.033Z,2.00
2018-11-11T15:00:10.467Z,1.00
2018-11-11T15:02:37.788Z,1.00
2018-11-11T15:05:06.856Z,0.93
2018-11-11T15:07:34.059Z,0.70
2018-11-11T15:10:01.308Z,0.67
2018-11-11T15:12:28.644Z,1.23
2018-11-11T15:14:55.891Z,0.80
2018-11-11T15:17:23.221Z,1.60
2018-11-11T15:19:50.586Z,0.67
2018-11-11T15:22:17.746Z,0.80
2018-11-11T15:24:45.091Z,0.60
2018-11-11T15:27:12.347Z,0.60
2018-11-11T15:29:39.653Z,0.60
2018-11-11T15:32:06.947Z,0.90
2018-11-11T15:34:34.200Z,0.70
2018-11-11T15:37:01.497Z,0.90
2018-11-11T15:39:28.779Z,0.90
2018-11-11T15:41:56.047Z,1.10
2018-11-11T15:44:23.274Z,1.10
2018-11-11T15:46:50.571Z,1.13
2018-11-11T15:49:18.805Z,1.07
2018-11-11T15:51:46.063Z,1.37
2018-11-11T15:54:13.362Z,1.30
2018-11-11T15:56:40.632Z,0.90
2018-11-11T15:59:07.937Z,1.20
2018-11-11T16:01:35.178Z,1.10
2018-11-11T16:04:02.485Z,1.25
2018-11-11T16:06:29.861Z,1.10
2018-11-11T16:08:57.363Z,1.55
2018-11-11T16:11:24.639Z,1.20
2018-11-11T16:13:52.069Z,1.42
2018-11-11T16:16:19.628Z,1.15
2018-11-11T16:18:46.883Z,1.20
2018-11-11T16:21:14.146Z,1.20
2018-11-11T16:23:41.518Z,1.05
2018-11-11T16:26:08.829Z,1.22
2018-11-11T16:28:36.249Z,1.15
2018-11-11T16:31:03.931Z,1.20
2018-11-11T16:33:31.265Z,1.60
2018-11-11T16:35:58.550Z,1.10
2018-11-11T16:38:25.796Z,1.10
2018-11-11T16:40:53.459Z,1.00
2018-11-11T16:43:20.889Z,1.25
2018-11-11T16:45:48.174Z,1.60
2018-11-11T16:48:15.515Z,1.20
2018-11-11T16:50:42.809Z,1.27
2018-11-11T16:53:10.356Z,1.05
2018-11-11T16:55:38.095Z,1.12
2018-11-11T16:58:05.459Z,1.17
2018-11-11T17:00:34.128Z,1.12
2018-11-11T17:03:02.367Z,1.42
2018-11-11T17:05:31.061Z,1.80
2018-11-11T17:07:58.408Z,1.70
2018-11-11T17:10:27.645Z,1.55
2018-11-11T17:12:56.170Z,2.10
2018-11-11T17:15:24.935Z,1.90
2018-11-11T17:17:52.173Z,2.20
2018-11-11T17:20:20.449Z,1.70
2018-11-11T17:22:48.580Z,2.45
2018-11-11T17:25:16.584Z,1.42
2018-11-11T17:27:44.194Z,1.90
2018-11-11T17:30:13.499Z,1.62
2018-11-11T17:32:41.301Z,1.52
2018-11-11T17:35:08.791Z,2.40
2018-11-11T17:37:36.017Z,1.60
2018-11-11T17:40:04.708Z,1.20
2018-11-11T17:42:31.874Z,1.40
2018-11-11T17:44:59.168Z,1.77
2018-11-11T17:47:26.452Z,1.87
2018-11-11T17:49:53.724Z,1.72
2018-11-11T17:52:21.002Z,4.83
2018-11-11T17:54:48.400Z,2.83
2018-11-11T17:57:15.660Z,3.08
2018-11-11T17:59:42.941Z,4.62
2018-11-11T18:02:10.223Z,4.47
2018-11-11T18:04:37.488Z,3.00
2018-11-11T18:07:04.851Z,2.90
2018-11-11T18:09:32.139Z,3.10
2018-11-11T18:11:59.403Z,3.00
2018-11-11T18:14:26.754Z,2.87
2018-11-11T18:16:54.057Z,2.90
2018-11-11T18:19:21.457Z,2.22
2018-11-11T18:21:48.668Z,1.90
2018-11-11T18:24:15.990Z,2.05
2018-11-11T18:26:43.224Z,1.62
2018-11-11T18:29:10.480Z,2.22
2018-11-11T18:31:37.774Z,2.22
2018-11-11T18:34:05.304Z,2.10
2018-11-11T18:36:32.996Z,1.80
2018-11-11T18:39:00.263Z,2.27
2018-11-11T18:41:27.524Z,2.37
2018-11-11T18:43:54.904Z,1.75
2018-11-11T18:46:22.183Z,2.70
2018-11-11T18:48:49.571Z,2.50
2018-11-11T18:51:16.836Z,2.10
2018-11-11T18:53:44.128Z,2.50
2018-11-11T18:56:11.400Z,2.37
2018-11-11T18:58:39.187Z,2.40
2018-11-11T19:01:06.435Z,2.05
2018-11-11T19:03:33.654Z,1.95
2018-11-11T19:06:00.916Z,2.80
2018-11-11T19:08:28.308Z,2.72
2018-11-11T19:10:55.717Z,2.50
2018-11-11T19:13:22.944Z,2.17
2018-11-11T19:15:50.172Z,2.37
2018-11-11T19:18:17.466Z,6.47
2018-11-11T19:20:44.685Z,9.08
2018-11-11T19:23:11.998Z,2.67
2018-11-11T19:25:39.252Z,3.05
2018-11-11T19:28:06.749Z,2.60
2018-11-11T19:30:33.991Z,2.60
2018-11-11T19:33:01.192Z,2.95
2018-11-11T19:35:28.438Z,3.83
2018-11-11T19:37:56.439Z,3.62
2018-11-11T19:40:24.835Z,5.35
2018-11-11T19:42:52.859Z,2.92
2018-11-11T19:45:21.493Z,4.05
2018-11-11T19:47:48.731Z,3.17
2018-11-11T19:50:17.371Z,3.45
2018-11-11T19:52:45.892Z,3.52
2018-11-11T19:55:13.964Z,3.87
2018-11-11T19:57:41.630Z,4.20
2018-11-11T20:00:13.099Z,4.42
2018-11-11T20:02:41.380Z,4.83
2018-11-11T20:05:10.150Z,4.20
2018-11-11T20:07:37.380Z,4.35
2018-11-11T20:10:06.714Z,3.50
2018-11-11T20:12:34.025Z,3.50
2018-11-11T20:15:01.353Z,4.70
2018-11-11T20:17:28.712Z,3.87
2018-11-11T20:19:55.984Z,4.40
2018-11-11T20:22:23.290Z,3.65
2018-11-11T20:24:50.686Z,4.75
2018-11-11T20:27:18.129Z,3.42
2018-11-11T20:29:45.348Z,4.97
2018-11-11T20:32:12.737Z,3.12
2018-11-11T20:34:39.969Z,3.65
2018-11-11T20:37:07.239Z,4.53
2018-11-11T20:39:34.605Z,5.47
2018-11-11T20:42:01.887Z,5.55
2018-11-11T20:44:29.147Z,4.75
2018-11-11T20:46:56.510Z,4.03
2018-11-11T20:49:23.793Z,4.08
2018-11-11T20:51:51.120Z,4.50
2018-11-11T20:54:18.453Z,4.30
2018-11-11T20:56:46.017Z,4.65
2018-11-11T20:59:13.283Z,3.70
2018-11-11T21:01:40.543Z,4.65
2018-11-11T21:04:07.921Z,4.83
2018-11-11T21:06:35.178Z,5.10
2018-11-11T21:09:02.965Z,4.50
2018-11-11T21:11:30.333Z,4.55
2018-11-11T21:13:57.685Z,4.80
2018-11-11T21:16:24.954Z,4.42
2018-11-11T21:18:53.083Z,4.20
2018-11-11T21:21:20.428Z,4.20
2018-11-11T21:23:47.620Z,4.58
2018-11-11T21:26:14.844Z,4.50
2018-11-11T21:28:42.014Z,4.70
2018-11-11T21:31:09.232Z,6.00
2018-11-11T21:33:36.477Z,4.55
2018-11-11T21:36:03.985Z,4.92
2018-11-11T21:38:31.339Z,5.25
2018-11-11T21:40:58.676Z,5.45
2018-11-11T21:43:26.009Z,4.62
2018-11-11T21:45:53.381Z,5.67
2018-11-11T21:48:20.725Z,4.95
2018-11-11T21:50:48.052Z,5.70
2018-11-11T21:53:26.528Z,5.75
2018-11-11T21:55:53.858Z,6.28
2018-11-11T21:58:21.157Z,6.28
2018-11-11T22:00:48.394Z,6.50
2018-11-11T22:03:15.629Z,7.22
2018-11-11T22:05:42.962Z,6.08
2018-11-11T22:08:10.183Z,7.65
2018-11-11T22:10:37.428Z,20.92
2018-11-11T22:13:05.076Z,7.60
2018-11-11T22:15:32.344Z,7.67
2018-11-11T22:17:59.648Z,15.58
2018-11-11T22:20:26.883Z,8.33
2018-11-11T22:22:54.190Z,6.85
2018-11-11T22:25:21.431Z,7.00
2018-11-11T22:27:48.621Z,5.35
2018-11-11T22:30:15.848Z,6.45
2018-11-11T22:32:43.121Z,6.53
2018-11-11T22:35:11.086Z,7.92
2018-11-11T22:37:38.345Z,5.37
2018-11-11T22:40:06.959Z,5.58
2018-11-11T22:42:34.402Z,5.78
2018-11-11T22:45:01.658Z,5.03
2018-11-11T22:47:28.923Z,6.22
2018-11-11T22:49:56.147Z,5.72
2018-11-11T22:52:23.389Z,5.50
2018-11-11T22:54:50.852Z,6.10
2018-11-11T22:57:18.072Z,5.28
2018-11-11T22:59:45.344Z,5.90
2018-11-11T23:02:12.636Z,4.75
2018-11-11T23:04:39.915Z,4.97
2018-11-11T23:07:07.149Z,5.03
2018-11-11T23:09:34.364Z,5.00
2018-11-11T23:12:01.672Z,5.60
2018-11-11T23:14:28.916Z,5.12
2018-11-11T23:16:56.128Z,4.80
2018-11-11T23:19:23.369Z,4.28
2018-11-11T23:21:50.601Z,4.37
2018-11-11T23:24:17.824Z,5.10
2018-11-11T23:26:45.388Z,5.45
2018-11-11T23:29:12.649Z,4.17
2018-11-11T23:31:39.890Z,4.50
2018-11-11T23:34:07.185Z,4.22
2018-11-11T23:36:34.432Z,4.60
2018-11-11T23:39:01.669Z,3.77
2018-11-11T23:41:28.909Z,3.92
2018-11-11T23:43:56.192Z,4.05
2018-11-11T23:46:23.467Z,4.50
2018-11-11T23:48:50.795Z,3.55
2018-11-11T23:51:18.021Z,4.28
2018-11-11T23:53:45.274Z,4.10
2018-11-11T23:56:12.529Z,4.08
2018-11-11T23:58:39.742Z,3.10
